createdAt,value
2023-02-26T00:01:28.407Z,100658.03
2023-02-26T00:03:56.577Z,100656.16
2023-02-26T00:06:24.895Z,100656.38
2023-02-26T00:08:52.910Z,100661.00
2023-02-26T00:11:20.989Z,100665.16
2023-02-26T00:13:49.012Z,100670.63
2023-02-26T00:16:20.982Z,100673.47
2023-02-26T00:18:48.964Z,100680.28
2023-02-26T00:21:17.723Z,100683.25
2023-02-26T00:23:45.542Z,100686.75
2023-02-26T00:26:13.202Z,100690.59
2023-02-26T00:28:41.216Z,100696.81
2023-02-26T00:31:09.446Z,100699.94
2023-02-26T00:33:38.989Z,100703.94
2023-02-26T00:36:10.410Z,100702.03
2023-02-26T00:38:38.147Z,100711.31
2023-02-26T00:41:06.082Z,100714.81
2023-02-26T00:43:34.096Z,100720.25
2023-02-26T00:46:04.166Z,100715.03
2023-02-26T00:48:36.446Z,100709.78
2023-02-26T00:51:07.828Z,100717.25
2023-02-26T00:53:36.587Z,100724.25
2023-02-26T00:56:04.221Z,100724.63
2023-02-26T00:58:31.804Z,100729.66
2023-02-26T01:01:00.848Z,100727.47
2023-02-26T01:03:29.423Z,100738.84
2023-02-26T01:05:57.125Z,100735.38
2023-02-26T01:08:29.135Z,100731.69
2023-02-26T01:10:57.005Z,100737.25
2023-02-26T01:13:24.887Z,100740.72
2023-02-26T01:15:54.367Z,100742.38
2023-02-26T01:18:22.623Z,100746.63
2023-02-26T01:20:51.035Z,100752.78
2023-02-26T01:23:19.845Z,100757.91
2023-02-26T01:25:50.191Z,100757.94
2023-02-26T01:28:18.127Z,100757.13
2023-02-26T01:30:46.168Z,100751.13
2023-02-26T01:33:15.987Z,100764.31
2023-02-26T01:35:45.191Z,100757.16
2023-02-26T01:38:16.783Z,100749.84
2023-02-26T01:40:49.561Z,100764.75
2023-02-26T01:43:20.590Z,100767.75
2023-02-26T01:45:53.737Z,100759.81
2023-02-26T01:48:23.508Z,100768.72
2023-02-26T01:50:51.943Z,100772.66
2023-02-26T01:53:24.979Z,100769.34
2023-02-26T01:55:54.044Z,100768.13
2023-02-26T01:58:23.125Z,100775.16
2023-02-26T02:00:52.140Z,100783.00
2023-02-26T02:03:20.185Z,100784.72
2023-02-26T02:05:48.883Z,100788.47
2023-02-26T02:08:16.666Z,100786.34
2023-02-26T02:10:44.970Z,100793.59
2023-02-26T02:13:16.047Z,100800.75
2023-02-26T02:15:46.642Z,100799.91
2023-02-26T02:18:16.790Z,100802.09
2023-02-26T02:20:49.260Z,100809.44
2023-02-26T02:23:18.310Z,100814.50
2023-02-26T02:25:57.006Z,100823.09
2023-02-26T02:28:27.848Z,100820.50
2023-02-26T02:31:02.285Z,100829.03
2023-02-26T02:33:31.965Z,100827.25
2023-02-26T02:36:00.701Z,100826.25
2023-02-26T02:38:29.349Z,100830.06
2023-02-26T02:40:59.434Z,100832.50
2023-02-26T02:43:29.281Z,100832.38
2023-02-26T02:45:57.790Z,100833.13
2023-02-26T02:48:28.803Z,100835.66
2023-02-26T02:50:56.882Z,100847.66
2023-02-26T02:53:25.125Z,100843.84
2023-02-26T02:56:00.594Z,100848.94
2023-02-26T02:58:30.747Z,100854.13
2023-02-26T03:00:59.301Z,100856.81
2023-02-26T03:03:29.357Z,100850.59
2023-02-26T03:05:57.053Z,100851.63
2023-02-26T03:08:26.426Z,100860.06
2023-02-26T03:10:54.079Z,100862.75
2023-02-26T03:13:22.555Z,100865.50
2023-02-26T03:16:02.315Z,100875.88
2023-02-26T03:18:35.330Z,100867.47
2023-02-26T03:21:05.517Z,100878.66
2023-02-26T03:23:33.928Z,100872.06
2023-02-26T03:26:11.576Z,100876.16
2023-02-26T03:28:41.798Z,100880.91
2023-02-26T03:31:10.073Z,100878.69
2023-02-26T03:33:40.482Z,100894.25
2023-02-26T03:36:09.920Z,100902.53
2023-02-26T03:38:44.746Z,100905.47
2023-02-26T03:41:12.999Z,100906.94
2023-02-26T03:43:41.278Z,100913.19
2023-02-26T03:46:12.753Z,100922.00
2023-02-26T03:48:41.965Z,100918.00
2023-02-26T03:51:09.990Z,100924.13
2023-02-26T03:53:55.072Z,100941.84
2023-02-26T03:56:27.035Z,100938.03
2023-02-26T03:59:03.352Z,100935.22
2023-02-26T04:02:00.292Z,100939.56
2023-02-26T04:04:31.503Z,100946.63
2023-02-26T04:06:59.245Z,100945.28
2023-02-26T04:09:26.917Z,100953.13
2023-02-26T04:11:54.755Z,100953.44
2023-02-26T04:14:22.412Z,100952.53
2023-02-26T04:16:50.119Z,100960.31
2023-02-26T04:19:18.754Z,100959.56
2023-02-26T04:21:48.510Z,100955.53
2023-02-26T04:24:17.184Z,100958.72
2023-02-26T04:26:45.616Z,100971.91
2023-02-26T04:29:14.160Z,100978.22
2023-02-26T04:31:42.266Z,100976.03
2023-02-26T04:34:09.952Z,100977.31
2023-02-26T04:36:37.567Z,100989.03
2023-02-26T04:39:06.651Z,100997.53
2023-02-26T04:41:35.899Z,100997.66
2023-02-26T04:44:03.966Z,101004.72
2023-02-26T04:46:32.869Z,101003.06
2023-02-26T04:49:00.669Z,101012.91
2023-02-26T04:51:28.518Z,101015.06
2023-02-26T04:53:56.282Z,101019.94
2023-02-26T04:56:26.458Z,101011.47
2023-02-26T04:58:54.276Z,101018.31
2023-02-26T05:01:27.403Z,101025.56
2023-02-26T05:03:55.119Z,101023.50
2023-02-26T05:06:23.017Z,101029.41
2023-02-26T05:08:50.790Z,101031.09
2023-02-26T05:11:19.313Z,101031.13
2023-02-26T05:13:49.255Z,101045.00
2023-02-26T05:16:18.157Z,101052.66
2023-02-26T05:18:46.042Z,101060.22
2023-02-26T05:21:13.645Z,101037.66
2023-02-26T05:23:41.290Z,101059.91
2023-02-26T05:26:09.029Z,101069.16
2023-02-26T05:28:38.007Z,101061.69
2023-02-26T05:31:08.192Z,101073.44
2023-02-26T05:33:36.394Z,101071.41
2023-02-26T05:36:04.070Z,101065.72
2023-02-26T05:38:31.751Z,101070.97
2023-02-26T05:40:59.485Z,101079.97
2023-02-26T05:43:27.929Z,101080.72
2023-02-26T05:45:55.618Z,101081.91
2023-02-26T05:48:24.607Z,101093.66
2023-02-26T05:50:52.531Z,101096.47
2023-02-26T05:53:20.315Z,101095.16
2023-02-26T05:55:47.927Z,101108.16
2023-02-26T05:58:15.667Z,101105.38
2023-02-26T06:00:43.356Z,101098.66
2023-02-26T06:03:11.008Z,101110.03
2023-02-26T06:05:40.050Z,101100.44
2023-02-26T06:08:07.688Z,101105.41
2023-02-26T06:10:35.278Z,101117.44
2023-02-26T06:13:02.937Z,101122.19
2023-02-26T06:15:30.576Z,101123.25
2023-02-26T06:17:58.305Z,101126.78
2023-02-26T06:20:26.046Z,101136.03
2023-02-26T06:22:55.162Z,101132.03
2023-02-26T06:25:22.780Z,101138.81
2023-02-26T06:27:50.506Z,101139.28
2023-02-26T06:30:19.143Z,101139.28
2023-02-26T06:32:46.826Z,101152.81
2023-02-26T06:35:14.543Z,101154.59
2023-02-26T06:37:42.288Z,101158.97
2023-02-26T06:40:12.506Z,101159.72
2023-02-26T06:42:40.131Z,101158.44
2023-02-26T06:45:08.179Z,101169.97
2023-02-26T06:47:35.997Z,101147.94
2023-02-26T06:50:04.069Z,101165.16
2023-02-26T06:52:31.753Z,101179.41
2023-02-26T06:54:59.537Z,101171.78
2023-02-26T06:57:28.586Z,101169.75
2023-02-26T06:59:56.249Z,101175.84
2023-02-26T07:02:24.171Z,101190.44
2023-02-26T07:04:51.870Z,101189.72
2023-02-26T07:07:19.528Z,101192.53
2023-02-26T07:09:47.134Z,101201.81
2023-02-26T07:12:14.968Z,101211.22
2023-02-26T07:14:45.708Z,101220.47
2023-02-26T07:17:20.242Z,101225.44
2023-02-26T07:19:48.166Z,101215.00
2023-02-26T07:22:15.922Z,101221.72
2023-02-26T07:24:43.547Z,101226.94
2023-02-26T07:27:11.274Z,101243.63
2023-02-26T07:29:38.875Z,101249.00
2023-02-26T07:32:07.889Z,101244.47
2023-02-26T07:34:35.540Z,101253.28
2023-02-26T07:37:03.456Z,101255.50
2023-02-26T07:39:31.083Z,101270.81
2023-02-26T07:41:58.746Z,101264.75
2023-02-26T07:44:29.411Z,101284.47
2023-02-26T07:46:57.058Z,101281.34
2023-02-26T07:49:26.119Z,101285.94
2023-02-26T07:52:02.839Z,101289.78
2023-02-26T07:54:30.618Z,101301.44
2023-02-26T07:56:58.287Z,101305.34
2023-02-26T07:59:25.980Z,101291.56
2023-02-26T08:01:53.789Z,101303.13
2023-02-26T08:04:21.459Z,101303.00
2023-02-26T08:06:50.560Z,101300.28
2023-02-26T08:09:18.393Z,101304.78
2023-02-26T08:11:47.611Z,101300.81
2023-02-26T08:14:15.333Z,101302.69
2023-02-26T08:16:43.004Z,101302.22
2023-02-26T08:19:11.039Z,101308.47
2023-02-26T08:21:38.833Z,101317.91
2023-02-26T08:24:08.019Z,101315.94
2023-02-26T08:26:36.554Z,101322.53
2023-02-26T08:29:04.179Z,101331.09
2023-02-26T08:31:32.172Z,101338.97
2023-02-26T08:33:59.868Z,101342.13
2023-02-26T08:36:27.723Z,101344.03
2023-02-26T08:38:55.596Z,101350.03
2023-02-26T08:41:25.223Z,101357.00
2023-02-26T08:43:53.026Z,101357.84
2023-02-26T08:46:20.767Z,101354.72
2023-02-26T08:48:48.620Z,101357.22
2023-02-26T08:51:16.290Z,101354.22
2023-02-26T08:53:45.375Z,101362.72
2023-02-26T08:56:13.185Z,101361.56
2023-02-26T08:58:42.235Z,101357.53
2023-02-26T09:01:09.878Z,101365.16
2023-02-26T09:03:37.567Z,101367.53
2023-02-26T09:06:05.557Z,101377.09
2023-02-26T09:08:34.090Z,101381.97
2023-02-26T09:11:02.275Z,101378.19
2023-02-26T09:13:30.228Z,101382.06
2023-02-26T09:15:59.291Z,101389.94
2023-02-26T09:18:27.056Z,101385.94
2023-02-26T09:20:54.756Z,101388.97
2023-02-26T09:23:22.456Z,101388.63
2023-02-26T09:25:53.711Z,101397.03
2023-02-26T09:28:21.539Z,101388.34
2023-02-26T09:30:49.184Z,101406.78
2023-02-26T09:33:18.204Z,101413.41
2023-02-26T09:35:45.956Z,101413.84
2023-02-26T09:38:13.670Z,101413.81
2023-02-26T09:40:44.203Z,101424.00
2023-02-26T09:43:19.705Z,101419.06
2023-02-26T09:45:47.427Z,101420.97
2023-02-26T09:48:17.532Z,101423.56
2023-02-26T09:50:47.498Z,101425.00
2023-02-26T09:53:17.821Z,101437.00
2023-02-26T09:55:47.590Z,101443.31
2023-02-26T09:58:18.902Z,101444.03
2023-02-26T10:00:48.582Z,101446.84
2023-02-26T10:03:18.647Z,101452.47
2023-02-26T10:05:50.132Z,101452.56
2023-02-26T10:08:18.446Z,101454.38
2023-02-26T10:10:51.434Z,101467.22
2023-02-26T10:13:22.247Z,101458.59
2023-02-26T10:15:49.919Z,101470.69
2023-02-26T10:18:18.787Z,101468.91
2023-02-26T10:20:50.049Z,101474.03
2023-02-26T10:23:19.334Z,101479.00
2023-02-26T10:25:47.802Z,101470.59
2023-02-26T10:28:28.460Z,101475.22
2023-02-26T10:30:57.274Z,101477.31
2023-02-26T10:33:27.791Z,101477.06
2023-02-26T10:36:04.761Z,101489.59
2023-02-26T10:38:32.752Z,101495.31
2023-02-26T10:41:02.112Z,101494.91
2023-02-26T10:43:31.174Z,101507.16
2023-02-26T10:46:03.238Z,101506.84
2023-02-26T10:48:50.106Z,101499.84
2023-02-26T10:51:19.681Z,101503.75
2023-02-26T10:53:50.665Z,101509.94
2023-02-26T10:56:18.497Z,101501.22
2023-02-26T10:58:46.340Z,101507.38
2023-02-26T11:01:15.128Z,101509.88
2023-02-26T11:03:43.617Z,101510.75
2023-02-26T11:06:11.661Z,101509.38
2023-02-26T11:08:41.047Z,101512.97
2023-02-26T11:11:08.947Z,101513.63
2023-02-26T11:13:38.139Z,101510.09
2023-02-26T11:16:07.903Z,101521.13
2023-02-26T11:18:38.321Z,101513.78
2023-02-26T11:21:06.746Z,101519.78
2023-02-26T11:23:34.467Z,101533.53
2023-02-26T11:26:05.387Z,101522.81
2023-02-26T11:28:34.719Z,101521.94
2023-02-26T11:31:02.811Z,101527.88
2023-02-26T11:33:34.330Z,101529.63
2023-02-26T11:36:02.752Z,101540.22
2023-02-26T11:38:30.422Z,101538.19
2023-02-26T11:40:58.656Z,101543.72
2023-02-26T11:43:28.362Z,101542.28
2023-02-26T11:45:56.923Z,101529.69
2023-02-26T11:48:25.810Z,101547.00
2023-02-26T11:50:54.907Z,101548.75
2023-02-26T11:53:25.502Z,101544.72
2023-02-26T11:55:53.544Z,101539.16
2023-02-26T11:58:22.139Z,101545.16
2023-02-26T12:00:51.183Z,101541.31
2023-02-26T12:03:19.969Z,101551.84
2023-02-26T12:05:47.787Z,101547.78
2023-02-26T12:08:19.651Z,101547.75
2023-02-26T12:10:49.854Z,101545.72
2023-02-26T12:13:19.100Z,101558.63
2023-02-26T12:15:49.056Z,101547.16
2023-02-26T12:18:21.621Z,101559.84
2023-02-26T12:20:52.430Z,101559.22
2023-02-26T12:23:31.205Z,101556.69
2023-02-26T12:26:01.168Z,101556.00
2023-02-26T12:28:49.801Z,101555.16
2023-02-26T12:31:36.456Z,101561.28
2023-02-26T12:34:09.872Z,101566.28
2023-02-26T12:36:49.014Z,101572.31
2023-02-26T12:39:20.923Z,101572.91
2023-02-26T12:41:51.635Z,101570.59
2023-02-26T12:44:23.171Z,101579.16
2023-02-26T12:46:54.038Z,101564.72
2023-02-26T12:49:28.258Z,101567.41
2023-02-26T12:52:01.411Z,101566.34
2023-02-26T12:54:36.750Z,101562.41
2023-02-26T12:57:12.630Z,101564.78
2023-02-26T12:59:44.396Z,101574.25
2023-02-26T13:02:35.907Z,101577.16
2023-02-26T13:05:16.047Z,101584.81
2023-02-26T13:07:49.738Z,101583.81
2023-02-26T13:10:20.269Z,101587.78
2023-02-26T13:12:48.963Z,101588.75
2023-02-26T13:15:34.214Z,101580.50
2023-02-26T13:18:03.769Z,101585.31
2023-02-26T13:20:33.122Z,101586.47
2023-02-26T13:23:01.806Z,101590.84
2023-02-26T13:25:31.707Z,101593.84
2023-02-26T13:27:59.996Z,101599.16
2023-02-26T13:30:29.024Z,101604.13
2023-02-26T13:32:57.728Z,101606.44
2023-02-26T13:35:27.612Z,101607.69
2023-02-26T13:37:56.844Z,101608.38
2023-02-26T13:40:30.203Z,101604.78
2023-02-26T13:42:59.481Z,101608.84
2023-02-26T13:45:32.379Z,101615.38
2023-02-26T13:48:03.735Z,101619.72
2023-02-26T13:50:35.236Z,101615.25
2023-02-26T13:53:04.928Z,101616.59
2023-02-26T13:55:40.250Z,101621.41
2023-02-26T13:58:17.910Z,101624.38
2023-02-26T14:00:47.416Z,101620.66
2023-02-26T14:03:30.044Z,101625.88
2023-02-26T14:06:08.272Z,101616.69
2023-02-26T14:08:48.365Z,101620.00
2023-02-26T14:11:34.599Z,101625.16
2023-02-26T14:14:12.411Z,101626.00
2023-02-26T14:16:41.021Z,101633.44
2023-02-26T14:19:19.624Z,101633.59
2023-02-26T14:21:51.357Z,101640.50
2023-02-26T14:24:23.425Z,101642.13
2023-02-26T14:26:51.780Z,101636.31
2023-02-26T14:29:23.465Z,101630.97
2023-02-26T14:32:11.967Z,101642.88
2023-02-26T14:34:42.529Z,101643.22
2023-02-26T14:37:11.581Z,101645.06
2023-02-26T14:39:42.148Z,101645.09
2023-02-26T14:42:12.894Z,101638.09
2023-02-26T14:44:41.549Z,101641.66
2023-02-26T14:47:09.356Z,101644.59
2023-02-26T14:49:37.607Z,101654.06
2023-02-26T14:52:20.086Z,101646.81
2023-02-26T14:54:51.994Z,101647.66
2023-02-26T14:57:21.399Z,101648.53
2023-02-26T14:59:54.870Z,101658.88
2023-02-26T15:02:28.155Z,101664.28
2023-02-26T15:05:06.499Z,101666.91
2023-02-26T15:07:37.673Z,101656.06
2023-02-26T15:10:12.540Z,101667.13
2023-02-26T15:12:44.139Z,101656.16
2023-02-26T15:15:14.421Z,101665.44
2023-02-26T15:17:45.724Z,101673.31
2023-02-26T15:20:16.950Z,101672.66
2023-02-26T15:22:48.180Z,101667.94
2023-02-26T15:25:19.923Z,101669.50
2023-02-26T15:27:47.666Z,101681.72
2023-02-26T15:30:15.651Z,101680.94
2023-02-26T15:32:43.517Z,101688.97
2023-02-26T15:35:15.853Z,101682.03
2023-02-26T15:37:43.548Z,101677.84
2023-02-26T15:40:12.595Z,101676.31
2023-02-26T15:42:42.079Z,101684.94
2023-02-26T15:45:11.931Z,101675.59
2023-02-26T15:47:39.818Z,101675.56
2023-02-26T15:50:07.859Z,101676.56
2023-02-26T15:52:35.473Z,101679.31
2023-02-26T15:55:04.360Z,101683.75
2023-02-26T15:57:32.020Z,101689.78
2023-02-26T16:00:08.142Z,101687.28
2023-02-26T16:02:39.828Z,101678.88
2023-02-26T16:05:07.944Z,101689.81
2023-02-26T16:07:35.664Z,101690.06
2023-02-26T16:10:06.898Z,101695.00
2023-02-26T16:12:36.309Z,101698.00
2023-02-26T16:15:06.160Z,101696.13
2023-02-26T16:17:34.773Z,101700.75
2023-02-26T16:20:03.982Z,101706.53
2023-02-26T16:22:31.936Z,101706.91
2023-02-26T16:25:00.286Z,101712.91
2023-02-26T16:27:28.518Z,101709.59
2023-02-26T16:29:56.813Z,101716.69
2023-02-26T16:32:26.026Z,101714.06
2023-02-26T16:34:54.914Z,101718.25
2023-02-26T16:37:26.957Z,101722.72
2023-02-26T16:39:56.424Z,101727.94
2023-02-26T16:42:24.622Z,101724.34
2023-02-26T16:44:53.365Z,101724.09
2023-02-26T16:47:21.460Z,101735.69
2023-02-26T16:49:50.549Z,101726.69
2023-02-26T16:52:19.715Z,101734.72
2023-02-26T16:54:50.547Z,101750.03
2023-02-26T16:57:18.580Z,101752.31
2023-02-26T16:59:47.948Z,101751.75
2023-02-26T17:02:18.433Z,101764.13
2023-02-26T17:04:46.971Z,101765.19
2023-02-26T17:07:21.732Z,101771.28
2023-02-26T17:09:50.850Z,101768.28
2023-02-26T17:12:19.353Z,101777.28
2023-02-26T17:14:48.014Z,101783.41
2023-02-26T17:17:15.706Z,101779.84
2023-02-26T17:19:43.444Z,101779.19
2023-02-26T17:22:13.112Z,101783.06
2023-02-26T17:24:45.630Z,101786.78
2023-02-26T17:27:14.514Z,101796.19
2023-02-26T17:29:43.493Z,101788.34
2023-02-26T17:32:12.769Z,101804.31
2023-02-26T17:34:40.558Z,101798.81
2023-02-26T17:37:10.157Z,101806.25
2023-02-26T17:39:37.870Z,101808.84
2023-02-26T17:42:09.807Z,101809.41
2023-02-26T17:44:37.392Z,101816.72
2023-02-26T17:47:05.116Z,101813.44
2023-02-26T17:49:32.862Z,101815.03
2023-02-26T17:52:00.545Z,101819.03
2023-02-26T17:54:28.228Z,101821.84
2023-02-26T17:56:55.903Z,101826.84
2023-02-26T17:59:24.902Z,101826.59
2023-02-26T18:01:53.397Z,101828.22
2023-02-26T18:04:21.064Z,101829.06
2023-02-26T18:06:48.800Z,101829.81
2023-02-26T18:09:16.621Z,101830.19
2023-02-26T18:11:44.359Z,101827.84
2023-02-26T18:14:12.163Z,101833.41
2023-02-26T18:16:41.989Z,101840.88
2023-02-26T18:19:09.741Z,101843.72
2023-02-26T18:21:37.388Z,101841.69
2023-02-26T18:24:05.283Z,101851.63
2023-02-26T18:26:33.431Z,101849.63
2023-02-26T18:29:01.125Z,101852.75
2023-02-26T18:31:34.580Z,101847.25
2023-02-26T18:34:04.318Z,101852.94
2023-02-26T18:36:37.468Z,101850.16
2023-02-26T18:39:06.940Z,101857.44
2023-02-26T18:41:34.592Z,101864.41
2023-02-26T18:44:02.342Z,101852.13
2023-02-26T18:46:30.307Z,101864.59
2023-02-26T18:48:58.038Z,101874.59
2023-02-26T18:51:27.426Z,101864.13
2023-02-26T18:53:55.407Z,101878.47
2023-02-26T18:56:23.128Z,101875.97
2023-02-26T18:58:50.806Z,101877.41
2023-02-26T19:01:18.593Z,101881.44
2023-02-26T19:03:46.299Z,101885.94
2023-02-26T19:06:13.918Z,101893.09
2023-02-26T19:08:43.006Z,101895.47
2023-02-26T19:11:10.666Z,101893.22
2023-02-26T19:13:38.324Z,101890.56
2023-02-26T19:16:06.272Z,101903.59
2023-02-26T19:18:33.978Z,101907.09
2023-02-26T19:21:02.533Z,101899.06
2023-02-26T19:23:31.038Z,101905.38
2023-02-26T19:26:00.157Z,101912.75
2023-02-26T19:28:27.822Z,101918.03
2023-02-26T19:30:55.625Z,101920.59
2023-02-26T19:33:24.447Z,101913.50
2023-02-26T19:35:52.115Z,101911.19
2023-02-26T19:38:19.821Z,101913.81
2023-02-26T19:40:47.689Z,101909.50
2023-02-26T19:43:16.717Z,101910.38
2023-02-26T19:45:44.405Z,101903.78
2023-02-26T19:48:12.006Z,101922.44
2023-02-26T19:50:39.700Z,101927.13
2023-02-26T19:53:09.245Z,101921.50
2023-02-26T19:55:36.942Z,101928.31
2023-02-26T19:58:04.531Z,101926.81
2023-02-26T20:00:33.673Z,101920.38
2023-02-26T20:03:01.350Z,101926.44
2023-02-26T20:05:29.147Z,101930.88
2023-02-26T20:07:56.776Z,101933.53
2023-02-26T20:10:26.437Z,101941.41
2023-02-26T20:12:54.121Z,101947.72
2023-02-26T20:15:21.763Z,101955.22
2023-02-26T20:17:50.784Z,101951.25
2023-02-26T20:20:18.599Z,101953.91
2023-02-26T20:22:46.270Z,101955.53
2023-02-26T20:25:14.847Z,101962.53
2023-02-26T20:27:42.546Z,101963.34
2023-02-26T20:30:11.082Z,101963.25
2023-02-26T20:32:38.901Z,101959.06
2023-02-26T20:35:09.069Z,101975.06
2023-02-26T20:37:36.758Z,101966.44
2023-02-26T20:40:05.715Z,101975.41
2023-02-26T20:42:33.515Z,101979.66
2023-02-26T20:45:01.246Z,101983.69
2023-02-26T20:47:29.088Z,101975.91
2023-02-26T20:49:56.759Z,101972.28
2023-02-26T20:52:25.874Z,101971.50
2023-02-26T20:54:53.586Z,101979.97
2023-02-26T20:57:21.235Z,101981.41
2023-02-26T20:59:48.874Z,101988.63
2023-02-26T21:02:20.557Z,101990.13
2023-02-26T21:04:48.358Z,101994.78
2023-02-26T21:07:21.745Z,102001.19
2023-02-26T21:09:51.850Z,101995.69
2023-02-26T21:12:19.696Z,101999.88
2023-02-26T21:14:47.648Z,102002.09
2023-02-26T21:17:15.320Z,102002.44
2023-02-26T21:19:42.950Z,102005.56
2023-02-26T21:22:10.624Z,102011.47
2023-02-26T21:24:38.372Z,102016.81
2023-02-26T21:27:07.550Z,102012.53
2023-02-26T21:29:35.379Z,102018.53
2023-02-26T21:32:03.967Z,102021.94
2023-02-26T21:34:34.087Z,102019.00
2023-02-26T21:37:02.091Z,102029.28
2023-02-26T21:39:30.643Z,102032.00
2023-02-26T21:41:59.246Z,102037.13
2023-02-26T21:44:28.406Z,102040.19
2023-02-26T21:46:57.341Z,102040.72
2023-02-26T21:49:25.080Z,102045.94
2023-02-26T21:51:52.860Z,102041.22
2023-02-26T21:54:20.612Z,102040.25
2023-02-26T21:56:48.261Z,102040.78
2023-02-26T21:59:15.905Z,102038.72
2023-02-26T22:01:45.428Z,102042.47
2023-02-26T22:04:13.224Z,102045.22
2023-02-26T22:06:40.910Z,102042.66
2023-02-26T22:09:08.678Z,102045.31
2023-02-26T22:11:36.319Z,102044.94
2023-02-26T22:14:03.998Z,102045.66
2023-02-26T22:16:31.648Z,102044.44
2023-02-26T22:19:00.754Z,102046.00
2023-02-26T22:21:28.712Z,102042.72
2023-02-26T22:23:56.575Z,102049.38
2023-02-26T22:26:24.332Z,102042.31
2023-02-26T22:28:52.007Z,102045.59
2023-02-26T22:31:19.793Z,102047.56
2023-02-26T22:33:47.696Z,102053.53
2023-02-26T22:36:16.684Z,102059.88
2023-02-26T22:38:44.350Z,102065.72
2023-02-26T22:41:12.039Z,102067.00
2023-02-26T22:43:39.756Z,102059.66
2023-02-26T22:46:07.569Z,102068.19
2023-02-26T22:48:35.322Z,102068.28
2023-02-26T22:51:03.155Z,102071.50
2023-02-26T22:53:32.247Z,102068.91
2023-02-26T22:56:00.555Z,102069.25
2023-02-26T22:58:28.670Z,102073.88
2023-02-26T23:00:59.814Z,102083.13
2023-02-26T23:03:27.601Z,102073.81
2023-02-26T23:05:55.280Z,102078.66
2023-02-26T23:08:22.931Z,102079.22
2023-02-26T23:10:51.996Z,102079.75
2023-02-26T23:13:19.623Z,102076.09
2023-02-26T23:15:47.481Z,102069.22
2023-02-26T23:18:15.119Z,102076.59
2023-02-26T23:20:42.758Z,102077.13
2023-02-26T23:23:10.406Z,102078.94
2023-02-26T23:25:38.070Z,102081.38
2023-02-26T23:28:08.468Z,102074.97
2023-02-26T23:30:36.136Z,102081.81
2023-02-26T23:33:04.774Z,102070.41
2023-02-26T23:35:32.428Z,102083.72
2023-02-26T23:38:00.208Z,102081.47
2023-02-26T23:40:27.941Z,102088.06
2023-02-26T23:42:56.161Z,102086.56
2023-02-26T23:45:25.219Z,102084.28
2023-02-26T23:47:53.012Z,102087.78
2023-02-26T23:50:20.886Z,102093.94
2023-02-26T23:52:48.595Z,102098.56
2023-02-26T23:55:16.229Z,102096.44
2023-02-26T23:57:44.476Z,102088.16
